sensor_id;sensor_type;location;lat;lon;timestamp;P1;durP1;ratioP1;P2;durP2;ratioP2
70150;SDS011;57517;43.562;19.540;2023-04-24T00:01:47;16.35;;;12.43;;
70150;SDS011;57517;43.562;19.540;2023-04-24T00:04:13;23.13;;;15.30;;
70150;SDS011;57517;43.562;19.540;2023-04-24T00:06:41;19.17;;;12.70;;
70150;SDS011;57517;43.562;19.540;2023-04-24T00:09:10;17.08;;;12.32;;
70150;SDS011;57517;43.562;19.540;2023-04-24T00:11:36;17.30;;;11.38;;
70150;SDS011;57517;43.562;19.540;2023-04-24T00:14:02;17.05;;;12.30;;
70150;SDS011;57517;43.562;19.540;2023-04-24T00:16:28;16.50;;;11.43;;
70150;SDS011;57517;43.562;19.540;2023-04-24T00:18:54;16.77;;;11.38;;
70150;SDS011;57517;43.562;19.540;2023-04-24T00:21:20;28.48;;;13.25;;
70150;SDS011;57517;43.562;19.540;2023-04-24T00:23:46;30.73;;;14.50;;
70150;SDS011;57517;43.562;19.540;2023-04-24T00:26:12;16.80;;;12.30;;
70150;SDS011;57517;43.562;19.540;2023-04-24T00:28:38;15.65;;;11.57;;
70150;SDS011;57517;43.562;19.540;2023-04-24T00:31:04;16.98;;;11.82;;
70150;SDS011;57517;43.562;19.540;2023-04-24T00:33:30;19.25;;;11.90;;
70150;SDS011;57517;43.562;19.540;2023-04-24T00:35:56;16.20;;;11.55;;
70150;SDS011;57517;43.562;19.540;2023-04-24T00:38:21;15.38;;;10.90;;
70150;SDS011;57517;43.562;19.540;2023-04-24T00:40:47;23.42;;;13.15;;
70150;SDS011;57517;43.562;19.540;2023-04-24T00:43:15;14.73;;;10.32;;
70150;SDS011;57517;43.562;19.540;2023-04-24T00:45:41;14.20;;;10.48;;
70150;SDS011;57517;43.562;19.540;2023-04-24T00:48:07;17.70;;;10.77;;
70150;SDS011;57517;43.562;19.540;2023-04-24T00:50:35;38.65;;;12.98;;
70150;SDS011;57517;43.562;19.540;2023-04-24T00:53:01;19.85;;;10.60;;
70150;SDS011;57517;43.562;19.540;2023-04-24T00:55:27;26.55;;;12.45;;
70150;SDS011;57517;43.562;19.540;2023-04-24T00:57:53;49.55;;;15.40;;
70150;SDS011;57517;43.562;19.540;2023-04-24T01:00:21;14.40;;;11.23;;
70150;SDS011;57517;43.562;19.540;2023-04-24T01:02:47;18.30;;;10.65;;
70150;SDS011;57517;43.562;19.540;2023-04-24T01:05:14;14.93;;;10.52;;
70150;SDS011;57517;43.562;19.540;2023-04-24T01:07:43;15.15;;;11.15;;
70150;SDS011;57517;43.562;19.540;2023-04-24T01:10:10;18.67;;;11.75;;
70150;SDS011;57517;43.562;19.540;2023-04-24T01:12:37;16.98;;;13.18;;
70150;SDS011;57517;43.562;19.540;2023-04-24T01:15:04;19.48;;;12.35;;
70150;SDS011;57517;43.562;19.540;2023-04-24T01:17:31;19.13;;;13.35;;
70150;SDS011;57517;43.562;19.540;2023-04-24T01:19:58;16.60;;;12.55;;
70150;SDS011;57517;43.562;19.540;2023-04-24T01:22:25;18.25;;;12.60;;
70150;SDS011;57517;43.562;19.540;2023-04-24T01:24:51;16.02;;;11.63;;
70150;SDS011;57517;43.562;19.540;2023-04-24T01:27:18;14.80;;;10.65;;
70150;SDS011;57517;43.562;19.540;2023-04-24T01:29:45;13.13;;;10.43;;
70150;SDS011;57517;43.562;19.540;2023-04-24T01:32:12;13.82;;;10.27;;
70150;SDS011;57517;43.562;19.540;2023-04-24T01:34:38;14.75;;;9.88;;
70150;SDS011;57517;43.562;19.540;2023-04-24T01:37:04;16.48;;;10.13;;
70150;SDS011;57517;43.562;19.540;2023-04-24T01:39:30;22.42;;;11.07;;
70150;SDS011;57517;43.562;19.540;2023-04-24T01:41:58;20.50;;;11.20;;
70150;SDS011;57517;43.562;19.540;2023-04-24T01:44:25;18.08;;;10.80;;
70150;SDS011;57517;43.562;19.540;2023-04-24T01:46:52;13.65;;;10.60;;
70150;SDS011;57517;43.562;19.540;2023-04-24T01:49:19;14.20;;;10.95;;
70150;SDS011;57517;43.562;19.540;2023-04-24T01:51:45;12.57;;;9.80;;
70150;SDS011;57517;43.562;19.540;2023-04-24T01:54:11;19.58;;;11.40;;
70150;SDS011;57517;43.562;19.540;2023-04-24T01:56:37;16.00;;;11.60;;
70150;SDS011;57517;43.562;19.540;2023-04-24T01:59:07;14.55;;;11.27;;
70150;SDS011;57517;43.562;19.540;2023-04-24T02:01:35;74.75;;;19.73;;
70150;SDS011;57517;43.562;19.540;2023-04-24T02:04:02;14.10;;;11.40;;
70150;SDS011;57517;43.562;19.540;2023-04-24T02:06:28;27.60;;;12.70;;
70150;SDS011;57517;43.562;19.540;2023-04-24T02:08:59;16.58;;;11.48;;
70150;SDS011;57517;43.562;19.540;2023-04-24T02:11:25;14.25;;;11.23;;
70150;SDS011;57517;43.562;19.540;2023-04-24T02:13:51;15.43;;;10.95;;
70150;SDS011;57517;43.562;19.540;2023-04-24T02:16:17;17.77;;;12.45;;
70150;SDS011;57517;43.562;19.540;2023-04-24T02:18:43;16.60;;;11.60;;
70150;SDS011;57517;43.562;19.540;2023-04-24T02:21:10;18.02;;;11.80;;
70150;SDS011;57517;43.562;19.540;2023-04-24T02:23:36;15.77;;;11.25;;
70150;SDS011;57517;43.562;19.540;2023-04-24T02:26:01;13.65;;;11.10;;
70150;SDS011;57517;43.562;19.540;2023-04-24T02:28:27;18.92;;;11.18;;
70150;SDS011;57517;43.562;19.540;2023-04-24T02:30:53;14.52;;;10.82;;
70150;SDS011;57517;43.562;19.540;2023-04-24T02:33:19;49.67;;;14.55;;
70150;SDS011;57517;43.562;19.540;2023-04-24T02:35:45;14.85;;;11.18;;
70150;SDS011;57517;43.562;19.540;2023-04-24T02:38:10;15.30;;;10.60;;
70150;SDS011;57517;43.562;19.540;2023-04-24T02:40:36;18.42;;;11.00;;
70150;SDS011;57517;43.562;19.540;2023-04-24T02:43:02;30.98;;;13.32;;
70150;SDS011;57517;43.562;19.540;2023-04-24T02:45:28;15.75;;;11.70;;
70150;SDS011;57517;43.562;19.540;2023-04-24T02:47:53;17.73;;;12.05;;
70150;SDS011;57517;43.562;19.540;2023-04-24T02:50:19;18.75;;;12.73;;
70150;SDS011;57517;43.562;19.540;2023-04-24T02:52:45;15.70;;;11.55;;
70150;SDS011;57517;43.562;19.540;2023-04-24T02:55:11;16.33;;;12.32;;
70150;SDS011;57517;43.562;19.540;2023-04-24T02:57:37;18.55;;;13.13;;
70150;SDS011;57517;43.562;19.540;2023-04-24T03:00:03;18.90;;;13.30;;
70150;SDS011;57517;43.562;19.540;2023-04-24T03:02:32;23.83;;;13.45;;
70150;SDS011;57517;43.562;19.540;2023-04-24T03:04:57;16.92;;;12.25;;
70150;SDS011;57517;43.562;19.540;2023-04-24T03:07:23;17.48;;;11.88;;
70150;SDS011;57517;43.562;19.540;2023-04-24T03:09:49;16.52;;;11.68;;
70150;SDS011;57517;43.562;19.540;2023-04-24T03:12:15;17.60;;;12.30;;
70150;SDS011;57517;43.562;19.540;2023-04-24T03:14:42;17.67;;;11.88;;
70150;SDS011;57517;43.562;19.540;2023-04-24T03:17:09;22.60;;;12.82;;
70150;SDS011;57517;43.562;19.540;2023-04-24T03:19:34;19.40;;;13.27;;
70150;SDS011;57517;43.562;19.540;2023-04-24T03:22:01;21.23;;;13.98;;
70150;SDS011;57517;43.562;19.540;2023-04-24T03:24:28;20.10;;;14.13;;
70150;SDS011;57517;43.562;19.540;2023-04-24T03:26:55;35.60;;;15.73;;
70150;SDS011;57517;43.562;19.540;2023-04-24T03:29:21;25.17;;;14.95;;
70150;SDS011;57517;43.562;19.540;2023-04-24T03:31:47;71.78;;;19.77;;
70150;SDS011;57517;43.562;19.540;2023-04-24T03:34:13;24.75;;;15.00;;
70150;SDS011;57517;43.562;19.540;2023-04-24T03:36:39;57.55;;;18.85;;
70150;SDS011;57517;43.562;19.540;2023-04-24T03:39:05;48.13;;;18.40;;
70150;SDS011;57517;43.562;19.540;2023-04-24T03:41:30;23.15;;;15.52;;
70150;SDS011;57517;43.562;19.540;2023-04-24T03:43:56;26.10;;;15.93;;
70150;SDS011;57517;43.562;19.540;2023-04-24T03:46:22;71.18;;;20.23;;
70150;SDS011;57517;43.562;19.540;2023-04-24T03:48:48;24.38;;;15.93;;
70150;SDS011;57517;43.562;19.540;2023-04-24T03:51:13;18.98;;;12.90;;
70150;SDS011;57517;43.562;19.540;2023-04-24T03:53:39;16.52;;;11.70;;
70150;SDS011;57517;43.562;19.540;2023-04-24T03:56:05;17.75;;;12.32;;
70150;SDS011;57517;43.562;19.540;2023-04-24T03:58:31;17.48;;;11.82;;
70150;SDS011;57517;43.562;19.540;2023-04-24T04:00:56;17.55;;;12.23;;
70150;SDS011;57517;43.562;19.540;2023-04-24T04:03:23;18.00;;;12.60;;
70150;SDS011;57517;43.562;19.540;2023-04-24T04:05:50;16.92;;;12.40;;
70150;SDS011;57517;43.562;19.540;2023-04-24T04:08:16;19.00;;;13.18;;
70150;SDS011;57517;43.562;19.540;2023-04-24T04:10:41;17.63;;;12.57;;
70150;SDS011;57517;43.562;19.540;2023-04-24T04:13:07;16.13;;;11.85;;
70150;SDS011;57517;43.562;19.540;2023-04-24T04:15:33;17.35;;;12.57;;
70150;SDS011;57517;43.562;19.540;2023-04-24T04:17:58;18.15;;;12.40;;
70150;SDS011;57517;43.562;19.540;2023-04-24T04:20:24;20.25;;;13.70;;
70150;SDS011;57517;43.562;19.540;2023-04-24T04:22:50;16.85;;;13.13;;
70150;SDS011;57517;43.562;19.540;2023-04-24T04:25:16;17.65;;;13.80;;
70150;SDS011;57517;43.562;19.540;2023-04-24T04:27:44;21.73;;;16.85;;
70150;SDS011;57517;43.562;19.540;2023-04-24T04:30:12;22.85;;;16.40;;
70150;SDS011;57517;43.562;19.540;2023-04-24T04:32:39;22.27;;;15.57;;
70150;SDS011;57517;43.562;19.540;2023-04-24T04:35:05;20.88;;;14.82;;
70150;SDS011;57517;43.562;19.540;2023-04-24T04:37:31;20.70;;;15.30;;
70150;SDS011;57517;43.562;19.540;2023-04-24T04:40:01;19.35;;;13.93;;
70150;SDS011;57517;43.562;19.540;2023-04-24T04:42:36;19.38;;;13.20;;
70150;SDS011;57517;43.562;19.540;2023-04-24T04:45:06;22.45;;;16.38;;
70150;SDS011;57517;43.562;19.540;2023-04-24T04:47:33;22.35;;;14.82;;
70150;SDS011;57517;43.562;19.540;2023-04-24T04:50:00;19.70;;;15.25;;
70150;SDS011;57517;43.562;19.540;2023-04-24T04:52:26;21.17;;;15.38;;
70150;SDS011;57517;43.562;19.540;2023-04-24T04:54:52;20.27;;;13.82;;
70150;SDS011;57517;43.562;19.540;2023-04-24T04:57:18;19.50;;;14.80;;
70150;SDS011;57517;43.562;19.540;2023-04-24T04:59:43;18.67;;;13.70;;
70150;SDS011;57517;43.562;19.540;2023-04-24T05:02:09;17.77;;;13.40;;
70150;SDS011;57517;43.562;19.540;2023-04-24T05:04:35;17.50;;;14.98;;
70150;SDS011;57517;43.562;19.540;2023-04-24T05:07:01;18.23;;;12.30;;
70150;SDS011;57517;43.562;19.540;2023-04-24T05:09:27;18.23;;;13.77;;
70150;SDS011;57517;43.562;19.540;2023-04-24T05:11:54;17.13;;;13.13;;
70150;SDS011;57517;43.562;19.540;2023-04-24T05:14:21;17.95;;;12.48;;
70150;SDS011;57517;43.562;19.540;2023-04-24T05:16:47;18.92;;;14.98;;
70150;SDS011;57517;43.562;19.540;2023-04-24T05:19:13;26.13;;;19.42;;
70150;SDS011;57517;43.562;19.540;2023-04-24T05:21:39;31.90;;;20.42;;
70150;SDS011;57517;43.562;19.540;2023-04-24T05:24:07;21.30;;;17.50;;
70150;SDS011;57517;43.562;19.540;2023-04-24T05:26:33;22.48;;;16.70;;
70150;SDS011;57517;43.562;19.540;2023-04-24T05:29:00;19.05;;;14.63;;
70150;SDS011;57517;43.562;19.540;2023-04-24T05:31:27;17.35;;;13.95;;
70150;SDS011;57517;43.562;19.540;2023-04-24T05:33:53;16.98;;;12.55;;
70150;SDS011;57517;43.562;19.540;2023-04-24T05:36:19;17.65;;;13.57;;
70150;SDS011;57517;43.562;19.540;2023-04-24T05:38:45;18.42;;;14.70;;
70150;SDS011;57517;43.562;19.540;2023-04-24T05:41:10;22.65;;;16.27;;
70150;SDS011;57517;43.562;19.540;2023-04-24T05:43:36;20.13;;;15.10;;
70150;SDS011;57517;43.562;19.540;2023-04-24T05:46:02;21.38;;;16.00;;
70150;SDS011;57517;43.562;19.540;2023-04-24T05:48:28;21.67;;;15.98;;
70150;SDS011;57517;43.562;19.540;2023-04-24T05:50:53;22.23;;;16.08;;
70150;SDS011;57517;43.562;19.540;2023-04-24T05:53:19;18.67;;;14.00;;
70150;SDS011;57517;43.562;19.540;2023-04-24T05:55:45;17.33;;;12.35;;
70150;SDS011;57517;43.562;19.540;2023-04-24T05:58:12;18.23;;;13.77;;
70150;SDS011;57517;43.562;19.540;2023-04-24T06:00:38;20.33;;;14.77;;
70150;SDS011;57517;43.562;19.540;2023-04-24T06:03:07;19.70;;;14.40;;
70150;SDS011;57517;43.562;19.540;2023-04-24T06:05:33;23.08;;;16.73;;
70150;SDS011;57517;43.562;19.540;2023-04-24T06:08:00;22.48;;;15.65;;
70150;SDS011;57517;43.562;19.540;2023-04-24T06:10:26;23.30;;;16.60;;
70150;SDS011;57517;43.562;19.540;2023-04-24T06:12:52;23.38;;;20.15;;
70150;SDS011;57517;43.562;19.540;2023-04-24T06:15:21;23.00;;;17.38;;
70150;SDS011;57517;43.562;19.540;2023-04-24T06:17:47;21.52;;;15.95;;
70150;SDS011;57517;43.562;19.540;2023-04-24T06:20:13;23.67;;;18.40;;
70150;SDS011;57517;43.562;19.540;2023-04-24T06:22:38;28.38;;;21.17;;
70150;SDS011;57517;43.562;19.540;2023-04-24T06:25:05;27.95;;;21.55;;
70150;SDS011;57517;43.562;19.540;2023-04-24T06:27:32;26.67;;;20.75;;
70150;SDS011;57517;43.562;19.540;2023-04-24T06:29:58;23.45;;;19.70;;
70150;SDS011;57517;43.562;19.540;2023-04-24T06:32:24;25.55;;;19.15;;
70150;SDS011;57517;43.562;19.540;2023-04-24T06:34:53;24.52;;;18.67;;
70150;SDS011;57517;43.562;19.540;2023-04-24T06:37:22;24.77;;;18.58;;
70150;SDS011;57517;43.562;19.540;2023-04-24T06:39:48;24.35;;;19.33;;
70150;SDS011;57517;43.562;19.540;2023-04-24T06:42:13;26.92;;;19.88;;
70150;SDS011;57517;43.562;19.540;2023-04-24T06:44:40;24.52;;;18.20;;
70150;SDS011;57517;43.562;19.540;2023-04-24T06:47:09;26.33;;;20.13;;
70150;SDS011;57517;43.562;19.540;2023-04-24T06:49:37;30.33;;;20.98;;
70150;SDS011;57517;43.562;19.540;2023-04-24T06:52:03;24.25;;;20.95;;
70150;SDS011;57517;43.562;19.540;2023-04-24T06:54:29;25.00;;;20.70;;
70150;SDS011;57517;43.562;19.540;2023-04-24T06:56:56;23.67;;;20.13;;
70150;SDS011;57517;43.562;19.540;2023-04-24T06:59:23;25.15;;;20.30;;
70150;SDS011;57517;43.562;19.540;2023-04-24T07:01:49;22.75;;;18.40;;
70150;SDS011;57517;43.562;19.540;2023-04-24T07:04:16;27.13;;;20.95;;
70150;SDS011;57517;43.562;19.540;2023-04-24T07:06:42;24.35;;;20.67;;
70150;SDS011;57517;43.562;19.540;2023-04-24T07:09:09;25.33;;;19.98;;
70150;SDS011;57517;43.562;19.540;2023-04-24T07:11:35;23.48;;;19.70;;
70150;SDS011;57517;43.562;19.540;2023-04-24T07:14:01;18.42;;;16.45;;
70150;SDS011;57517;43.562;19.540;2023-04-24T07:16:27;28.50;;;16.40;;
70150;SDS011;57517;43.562;19.540;2023-04-24T07:18:53;24.90;;;18.80;;
70150;SDS011;57517;43.562;19.540;2023-04-24T07:21:19;26.77;;;20.17;;
70150;SDS011;57517;43.562;19.540;2023-04-24T07:23:45;24.70;;;21.13;;
70150;SDS011;57517;43.562;19.540;2023-04-24T07:26:10;25.15;;;22.00;;
70150;SDS011;57517;43.562;19.540;2023-04-24T07:28:36;28.40;;;23.17;;
70150;SDS011;57517;43.562;19.540;2023-04-24T07:31:02;31.60;;;25.98;;
70150;SDS011;57517;43.562;19.540;2023-04-24T07:33:28;28.85;;;23.73;;
70150;SDS011;57517;43.562;19.540;2023-04-24T07:35:53;25.63;;;22.15;;
70150;SDS011;57517;43.562;19.540;2023-04-24T07:38:19;40.53;;;32.90;;
70150;SDS011;57517;43.562;19.540;2023-04-24T07:40:47;26.48;;;23.55;;
70150;SDS011;57517;43.562;19.540;2023-04-24T07:43:13;22.42;;;19.55;;
70150;SDS011;57517;43.562;19.540;2023-04-24T07:45:39;26.17;;;21.42;;
70150;SDS011;57517;43.562;19.540;2023-04-24T07:48:05;20.77;;;17.52;;
70150;SDS011;57517;43.562;19.540;2023-04-24T07:50:31;19.88;;;15.80;;
70150;SDS011;57517;43.562;19.540;2023-04-24T07:52:57;20.13;;;17.02;;
70150;SDS011;57517;43.562;19.540;2023-04-24T07:55:23;20.15;;;16.73;;
70150;SDS011;57517;43.562;19.540;2023-04-24T07:57:49;21.33;;;19.05;;
70150;SDS011;57517;43.562;19.540;2023-04-24T08:00:15;25.17;;;21.95;;
70150;SDS011;57517;43.562;19.540;2023-04-24T08:02:41;21.95;;;19.73;;
70150;SDS011;57517;43.562;19.540;2023-04-24T08:05:07;21.70;;;17.48;;
70150;SDS011;57517;43.562;19.540;2023-04-24T08:07:33;21.58;;;18.02;;
70150;SDS011;57517;43.562;19.540;2023-04-24T08:10:00;22.30;;;19.30;;
70150;SDS011;57517;43.562;19.540;2023-04-24T08:12:28;23.00;;;20.50;;
70150;SDS011;57517;43.562;19.540;2023-04-24T08:14:54;19.52;;;17.42;;
70150;SDS011;57517;43.562;19.540;2023-04-24T08:17:20;19.83;;;16.80;;
70150;SDS011;57517;43.562;19.540;2023-04-24T08:19:46;20.60;;;18.13;;
70150;SDS011;57517;43.562;19.540;2023-04-24T08:22:16;19.52;;;17.23;;
70150;SDS011;57517;43.562;19.540;2023-04-24T08:24:42;20.80;;;17.50;;
70150;SDS011;57517;43.562;19.540;2023-04-24T08:27:09;19.50;;;16.30;;
70150;SDS011;57517;43.562;19.540;2023-04-24T08:29:35;18.90;;;15.60;;
70150;SDS011;57517;43.562;19.540;2023-04-24T08:32:01;16.67;;;14.90;;
70150;SDS011;57517;43.562;19.540;2023-04-24T08:34:27;19.05;;;17.02;;
70150;SDS011;57517;43.562;19.540;2023-04-24T08:36:53;19.00;;;15.20;;
70150;SDS011;57517;43.562;19.540;2023-04-24T08:39:19;19.73;;;17.05;;
70150;SDS011;57517;43.562;19.540;2023-04-24T08:41:45;19.35;;;15.50;;
70150;SDS011;57517;43.562;19.540;2023-04-24T08:44:14;19.70;;;16.33;;
70150;SDS011;57517;43.562;19.540;2023-04-24T08:46:42;21.77;;;17.70;;
70150;SDS011;57517;43.562;19.540;2023-04-24T08:49:10;18.25;;;15.70;;
70150;SDS011;57517;43.562;19.540;2023-04-24T08:51:38;24.73;;;17.90;;
70150;SDS011;57517;43.562;19.540;2023-04-24T08:54:04;18.15;;;16.17;;
70150;SDS011;57517;43.562;19.540;2023-04-24T08:56:32;18.65;;;16.75;;
70150;SDS011;57517;43.562;19.540;2023-04-24T08:59:03;25.00;;;22.40;;
70150;SDS011;57517;43.562;19.540;2023-04-24T09:01:29;23.30;;;18.20;;
70150;SDS011;57517;43.562;19.540;2023-04-24T09:04:00;18.58;;;16.58;;
70150;SDS011;57517;43.562;19.540;2023-04-24T09:06:29;18.58;;;15.35;;
70150;SDS011;57517;43.562;19.540;2023-04-24T09:08:58;21.70;;;15.40;;
70150;SDS011;57517;43.562;19.540;2023-04-24T09:11:25;17.92;;;14.30;;
70150;SDS011;57517;43.562;19.540;2023-04-24T09:13:53;20.25;;;16.08;;
70150;SDS011;57517;43.562;19.540;2023-04-24T09:16:20;20.98;;;17.58;;
70150;SDS011;57517;43.562;19.540;2023-04-24T09:18:48;23.85;;;18.55;;
70150;SDS011;57517;43.562;19.540;2023-04-24T09:21:13;21.33;;;18.30;;
70150;SDS011;57517;43.562;19.540;2023-04-24T09:23:40;13.25;;;9.60;;
70150;SDS011;57517;43.562;19.540;2023-04-24T09:26:06;7.38;;;5.90;;
70150;SDS011;57517;43.562;19.540;2023-04-24T09:28:35;6.30;;;4.32;;
70150;SDS011;57517;43.562;19.540;2023-04-24T09:31:13;5.80;;;4.57;;
70150;SDS011;57517;43.562;19.540;2023-04-24T09:34:04;5.97;;;4.35;;
70150;SDS011;57517;43.562;19.540;2023-04-24T09:36:33;6.15;;;4.88;;
70150;SDS011;57517;43.562;19.540;2023-04-24T09:39:14;6.35;;;4.85;;
70150;SDS011;57517;43.562;19.540;2023-04-24T09:41:56;5.63;;;4.50;;
70150;SDS011;57517;43.562;19.540;2023-04-24T09:44:23;6.22;;;4.55;;
70150;SDS011;57517;43.562;19.540;2023-04-24T09:46:52;5.75;;;4.70;;
70150;SDS011;57517;43.562;19.540;2023-04-24T09:49:23;6.60;;;4.65;;
70150;SDS011;57517;43.562;19.540;2023-04-24T09:52:05;7.47;;;4.55;;
70150;SDS011;57517;43.562;19.540;2023-04-24T09:54:32;11.60;;;8.40;;
70150;SDS011;57517;43.562;19.540;2023-04-24T09:56:58;11.25;;;5.90;;
70150;SDS011;57517;43.562;19.540;2023-04-24T09:59:25;6.00;;;4.65;;
70150;SDS011;57517;43.562;19.540;2023-04-24T10:01:51;6.55;;;5.28;;
70150;SDS011;57517;43.562;19.540;2023-04-24T10:04:24;6.05;;;4.95;;
70150;SDS011;57517;43.562;19.540;2023-04-24T10:06:51;7.57;;;5.55;;
70150;SDS011;57517;43.562;19.540;2023-04-24T10:09:19;7.05;;;6.35;;
70150;SDS011;57517;43.562;19.540;2023-04-24T10:11:47;8.25;;;6.00;;
70150;SDS011;57517;43.562;19.540;2023-04-24T10:14:18;6.57;;;5.15;;
70150;SDS011;57517;43.562;19.540;2023-04-24T10:16:46;7.72;;;5.75;;
70150;SDS011;57517;43.562;19.540;2023-04-24T10:19:13;9.50;;;6.57;;
70150;SDS011;57517;43.562;19.540;2023-04-24T10:21:40;6.70;;;6.00;;
70150;SDS011;57517;43.562;19.540;2023-04-24T10:24:11;7.25;;;6.22;;
70150;SDS011;57517;43.562;19.540;2023-04-24T10:26:38;7.57;;;6.15;;
70150;SDS011;57517;43.562;19.540;2023-04-24T10:29:05;8.98;;;7.30;;
70150;SDS011;57517;43.562;19.540;2023-04-24T10:31:36;8.35;;;7.00;;
70150;SDS011;57517;43.562;19.540;2023-04-24T10:34:03;8.95;;;6.45;;
70150;SDS011;57517;43.562;19.540;2023-04-24T10:36:30;9.38;;;7.50;;
70150;SDS011;57517;43.562;19.540;2023-04-24T10:39:02;14.10;;;11.02;;
70150;SDS011;57517;43.562;19.540;2023-04-24T10:41:31;17.17;;;14.63;;
70150;SDS011;57517;43.562;19.540;2023-04-24T10:44:06;16.40;;;14.65;;
70150;SDS011;57517;43.562;19.540;2023-04-24T10:46:34;21.85;;;14.35;;
70150;SDS011;57517;43.562;19.540;2023-04-24T10:49:04;17.25;;;12.68;;
70150;SDS011;57517;43.562;19.540;2023-04-24T10:51:47;13.35;;;10.30;;
70150;SDS011;57517;43.562;19.540;2023-04-24T11:00:12;15.73;;;14.13;;
70150;SDS011;57517;43.562;19.540;2023-04-24T11:02:40;17.75;;;14.18;;
70150;SDS011;57517;43.562;19.540;2023-04-24T11:05:14;17.85;;;14.80;;
70150;SDS011;57517;43.562;19.540;2023-04-24T11:10:39;20.95;;;17.30;;
70150;SDS011;57517;43.562;19.540;2023-04-24T11:13:09;18.15;;;16.17;;
70150;SDS011;57517;43.562;19.540;2023-04-24T11:15:35;19.48;;;17.40;;
70150;SDS011;57517;43.562;19.540;2023-04-24T11:18:00;21.50;;;17.13;;
70150;SDS011;57517;43.562;19.540;2023-04-24T11:20:26;19.73;;;17.00;;
70150;SDS011;57517;43.562;19.540;2023-04-24T11:22:53;17.65;;;15.75;;
70150;SDS011;57517;43.562;19.540;2023-04-24T11:25:20;26.45;;;21.38;;
70150;SDS011;57517;43.562;19.540;2023-04-24T11:27:47;21.42;;;19.13;;
70150;SDS011;57517;43.562;19.540;2023-04-24T11:30:19;20.08;;;16.80;;
70150;SDS011;57517;43.562;19.540;2023-04-24T11:32:49;19.48;;;17.40;;
70150;SDS011;57517;43.562;19.540;2023-04-24T11:35:22;21.00;;;17.83;;
70150;SDS011;57517;43.562;19.540;2023-04-24T11:37:51;20.63;;;16.97;;
70150;SDS011;57517;43.562;19.540;2023-04-24T11:40:19;18.17;;;15.30;;
70150;SDS011;57517;43.562;19.540;2023-04-24T11:42:48;23.33;;;17.63;;
70150;SDS011;57517;43.562;19.540;2023-04-24T11:45:16;14.60;;;12.45;;
70150;SDS011;57517;43.562;19.540;2023-04-24T11:47:44;13.07;;;10.85;;
70150;SDS011;57517;43.562;19.540;2023-04-24T11:50:14;47.00;;;32.20;;
70150;SDS011;57517;43.562;19.540;2023-04-24T11:52:43;21.55;;;15.70;;
70150;SDS011;57517;43.562;19.540;2023-04-24T11:57:40;61.10;;;45.08;;
70150;SDS011;57517;43.562;19.540;2023-04-24T12:00:14;84.18;;;58.35;;
70150;SDS011;57517;43.562;19.540;2023-04-24T12:02:40;35.83;;;27.83;;
70150;SDS011;57517;43.562;19.540;2023-04-24T12:05:06;22.40;;;16.50;;
70150;SDS011;57517;43.562;19.540;2023-04-24T12:07:39;14.63;;;11.40;;
70150;SDS011;57517;43.562;19.540;2023-04-24T12:10:08;12.70;;;9.30;;
70150;SDS011;57517;43.562;19.540;2023-04-24T12:12:34;18.50;;;15.23;;
70150;SDS011;57517;43.562;19.540;2023-04-24T12:15:00;13.30;;;11.18;;
70150;SDS011;57517;43.562;19.540;2023-04-24T12:17:31;45.58;;;38.78;;
70150;SDS011;57517;43.562;19.540;2023-04-24T12:20:05;25.60;;;21.88;;
70150;SDS011;57517;43.562;19.540;2023-04-24T12:22:49;27.02;;;22.52;;
70150;SDS011;57517;43.562;19.540;2023-04-24T12:25:20;29.80;;;22.60;;
70150;SDS011;57517;43.562;19.540;2023-04-24T12:30:32;62.10;;;46.67;;
70150;SDS011;57517;43.562;19.540;2023-04-24T12:32:59;31.40;;;22.35;;
70150;SDS011;57517;43.562;19.540;2023-04-24T12:35:29;72.13;;;54.22;;
70150;SDS011;57517;43.562;19.540;2023-04-24T12:38:07;19.92;;;17.27;;
70150;SDS011;57517;43.562;19.540;2023-04-24T12:40:38;14.65;;;9.80;;
70150;SDS011;57517;43.562;19.540;2023-04-24T12:43:14;19.15;;;14.10;;
70150;SDS011;57517;43.562;19.540;2023-04-24T12:45:41;12.50;;;9.38;;
70150;SDS011;57517;43.562;19.540;2023-04-24T12:48:06;11.20;;;8.65;;
70150;SDS011;57517;43.562;19.540;2023-04-24T12:50:32;21.10;;;14.32;;
70150;SDS011;57517;43.562;19.540;2023-04-24T12:52:58;13.45;;;11.20;;
70150;SDS011;57517;43.562;19.540;2023-04-24T12:55:24;14.05;;;10.75;;
70150;SDS011;57517;43.562;19.540;2023-04-24T12:57:49;10.45;;;8.60;;
70150;SDS011;57517;43.562;19.540;2023-04-24T13:00:15;10.88;;;7.97;;
70150;SDS011;57517;43.562;19.540;2023-04-24T13:02:42;11.27;;;9.23;;
70150;SDS011;57517;43.562;19.540;2023-04-24T13:05:08;10.70;;;8.70;;
70150;SDS011;57517;43.562;19.540;2023-04-24T13:07:34;11.82;;;9.90;;
70150;SDS011;57517;43.562;19.540;2023-04-24T13:09:59;10.75;;;8.10;;
70150;SDS011;57517;43.562;19.540;2023-04-24T13:12:25;9.25;;;7.35;;
70150;SDS011;57517;43.562;19.540;2023-04-24T13:14:51;8.20;;;6.50;;
70150;SDS011;57517;43.562;19.540;2023-04-24T13:17:18;9.32;;;7.72;;
70150;SDS011;57517;43.562;19.540;2023-04-24T13:19:44;9.70;;;8.13;;
70150;SDS011;57517;43.562;19.540;2023-04-24T13:22:10;7.80;;;6.63;;
70150;SDS011;57517;43.562;19.540;2023-04-24T13:24:37;9.50;;;6.85;;
70150;SDS011;57517;43.562;19.540;2023-04-24T13:27:07;9.70;;;7.30;;
70150;SDS011;57517;43.562;19.540;2023-04-24T13:29:34;11.20;;;8.55;;
70150;SDS011;57517;43.562;19.540;2023-04-24T13:32:00;10.35;;;8.15;;
70150;SDS011;57517;43.562;19.540;2023-04-24T13:34:25;8.38;;;6.50;;
70150;SDS011;57517;43.562;19.540;2023-04-24T13:36:52;7.20;;;6.45;;
70150;SDS011;57517;43.562;19.540;2023-04-24T13:39:20;10.05;;;6.78;;
70150;SDS011;57517;43.562;19.540;2023-04-24T13:41:47;9.13;;;6.82;;
70150;SDS011;57517;43.562;19.540;2023-04-24T13:44:16;9.35;;;6.53;;
70150;SDS011;57517;43.562;19.540;2023-04-24T13:46:43;8.48;;;7.30;;
70150;SDS011;57517;43.562;19.540;2023-04-24T13:49:10;8.15;;;6.22;;
70150;SDS011;57517;43.562;19.540;2023-04-24T13:51:40;9.02;;;6.25;;
70150;SDS011;57517;43.562;19.540;2023-04-24T13:54:06;8.25;;;6.68;;
70150;SDS011;57517;43.562;19.540;2023-04-24T13:56:32;8.90;;;6.32;;
70150;SDS011;57517;43.562;19.540;2023-04-24T13:58:58;7.97;;;6.95;;
70150;SDS011;57517;43.562;19.540;2023-04-24T14:01:24;8.43;;;6.30;;
70150;SDS011;57517;43.562;19.540;2023-04-24T14:03:50;12.70;;;9.88;;
70150;SDS011;57517;43.562;19.540;2023-04-24T14:06:17;8.00;;;6.10;;
70150;SDS011;57517;43.562;19.540;2023-04-24T14:08:43;7.43;;;6.60;;
70150;SDS011;57517;43.562;19.540;2023-04-24T14:11:09;11.25;;;8.80;;
70150;SDS011;57517;43.562;19.540;2023-04-24T14:13:36;8.98;;;7.20;;
70150;SDS011;57517;43.562;19.540;2023-04-24T14:16:02;10.13;;;6.53;;
70150;SDS011;57517;43.562;19.540;2023-04-24T14:18:29;7.95;;;5.80;;
70150;SDS011;57517;43.562;19.540;2023-04-24T14:20:55;7.50;;;5.97;;
70150;SDS011;57517;43.562;19.540;2023-04-24T14:23:20;10.38;;;6.90;;
70150;SDS011;57517;43.562;19.540;2023-04-24T14:25:46;6.55;;;5.90;;
70150;SDS011;57517;43.562;19.540;2023-04-24T14:28:16;7.57;;;6.28;;